createdAt,value
2018-06-28T00:59:11.425Z,9.07
2018-06-28T01:01:39.845Z,7.27
2018-06-28T01:04:08.776Z,7.87
2018-06-28T01:06:37.196Z,9.17
2018-06-28T01:09:09.537Z,7.27
2018-06-28T01:11:38.605Z,9.43
2018-06-28T01:14:07.405Z,8.37
2018-06-28T01:16:36.406Z,8.23
2018-06-28T01:19:06.442Z,8.13
2018-06-28T01:21:37.392Z,7.87
2018-06-28T01:24:06.476Z,7.40
2018-06-28T01:26:35.074Z,10.40
2018-06-28T01:29:03.556Z,10.73
2018-06-28T01:31:33.053Z,7.97
2018-06-28T01:34:01.620Z,8.47
2018-06-28T01:36:30.211Z,5.87
2018-06-28T01:38:58.611Z,6.47
2018-06-28T01:41:38.746Z,6.83
2018-06-28T01:44:08.611Z,5.97
2018-06-28T01:46:37.194Z,7.47
2018-06-28T01:49:05.624Z,6.50
2018-06-28T01:51:34.493Z,7.60
2018-06-28T01:54:04.082Z,7.63
2018-06-28T01:56:32.811Z,6.90
2018-06-28T01:59:01.572Z,6.90
2018-06-28T02:01:30.593Z,6.93
2018-06-28T02:03:59.039Z,6.77
2018-06-28T02:06:27.486Z,8.93
2018-06-28T02:08:55.994Z,6.87
2018-06-28T02:11:24.740Z,11.37
2018-06-28T02:13:53.163Z,9.27
2018-06-28T02:16:21.574Z,8.97
2018-06-28T02:18:51.165Z,7.40
2018-06-28T02:21:19.618Z,9.87
2018-06-28T02:23:48.035Z,8.40
2018-06-28T02:26:16.694Z,10.63
2018-06-28T02:28:45.072Z,8.13
2018-06-28T02:31:14.448Z,9.83
2018-06-28T02:33:42.889Z,10.33
2018-06-28T02:36:11.333Z,8.43
2018-06-28T02:38:40.973Z,9.10
2018-06-28T02:41:09.391Z,10.27
2018-06-28T02:43:37.810Z,9.27
2018-06-28T02:46:06.353Z,11.43
2018-06-28T02:48:34.809Z,9.70
2018-06-28T02:51:03.295Z,10.97
2018-06-28T02:53:32.040Z,10.40
2018-06-28T02:56:01.132Z,9.57
2018-06-28T02:58:29.510Z,11.00
2018-06-28T03:00:57.885Z,10.60
2018-06-28T03:03:26.733Z,16.00
2018-06-28T03:05:55.689Z,11.20
2018-06-28T03:08:24.720Z,11.23
2018-06-28T03:10:53.132Z,16.80
2018-06-28T03:13:22.104Z,10.57
2018-06-28T03:15:50.765Z,10.40
2018-06-28T03:18:19.138Z,10.00
2018-06-28T03:20:47.526Z,10.67
2018-06-28T03:23:16.017Z,10.87
2018-06-28T03:25:44.837Z,11.23
2018-06-28T03:28:13.261Z,10.27
2018-06-28T03:30:43.193Z,10.20
2018-06-28T03:33:11.568Z,9.47
2018-06-28T03:35:39.964Z,10.40
2018-06-28T03:38:09.800Z,10.23
2018-06-28T03:40:38.181Z,10.47
2018-06-28T03:43:07.003Z,10.67
2018-06-28T03:45:36.077Z,11.23
2018-06-28T03:48:04.544Z,11.77
2018-06-28T03:50:33.372Z,10.23
2018-06-28T03:53:02.079Z,10.50
2018-06-28T03:55:31.574Z,10.77
2018-06-28T03:58:00.087Z,12.00
2018-06-28T04:00:29.647Z,12.03
2018-06-28T04:02:58.499Z,12.03
2018-06-28T04:05:26.902Z,11.63
2018-06-28T04:07:55.899Z,13.10
2018-06-28T04:10:24.538Z,12.33
2018-06-28T04:12:53.687Z,12.90
2018-06-28T04:15:22.474Z,17.77
2018-06-28T04:17:51.410Z,13.73
2018-06-28T04:20:19.802Z,12.50
2018-06-28T04:22:49.077Z,12.80
2018-06-28T04:25:17.506Z,12.87
2018-06-28T04:27:46.488Z,13.73
2018-06-28T04:30:15.121Z,13.73
2018-06-28T04:32:44.949Z,13.10
2018-06-28T04:35:13.341Z,21.57
2018-06-28T04:37:41.808Z,14.33
2018-06-28T04:40:10.370Z,14.37
2018-06-28T04:42:38.886Z,16.13
2018-06-28T04:45:08.333Z,13.33
2018-06-28T04:47:36.960Z,13.53
2018-06-28T04:50:05.511Z,14.20
2018-06-28T04:52:34.124Z,13.63
2018-06-28T04:55:04.782Z,14.03
2018-06-28T04:57:33.461Z,12.83
2018-06-28T05:00:02.402Z,11.77
2018-06-28T05:02:31.374Z,18.87
2018-06-28T05:05:00.008Z,11.43
2018-06-28T05:07:29.567Z,11.00
2018-06-28T05:09:58.442Z,11.63
2018-06-28T05:12:27.875Z,11.23
2018-06-28T05:14:56.979Z,12.73
2018-06-28T05:17:25.845Z,17.37
2018-06-28T05:19:54.552Z,11.87
2018-06-28T05:22:23.326Z,19.87
2018-06-28T05:24:53.631Z,13.60
2018-06-28T05:27:25.932Z,13.67
2018-06-28T05:30:03.788Z,13.60
2018-06-28T05:32:33.659Z,13.87
2018-06-28T05:35:02.315Z,13.37
2018-06-28T05:37:31.473Z,12.83
2018-06-28T05:40:00.126Z,12.77
2018-06-28T05:42:28.542Z,12.70
2018-06-28T05:44:57.238Z,18.33
2018-06-28T05:47:26.703Z,13.10
2018-06-28T05:49:55.815Z,12.37
2018-06-28T05:52:30.610Z,11.53
2018-06-28T05:54:59.359Z,18.77
2018-06-28T05:57:28.028Z,12.77
2018-06-28T05:59:56.519Z,11.07
2018-06-28T06:02:25.435Z,13.43
2018-06-28T06:04:54.540Z,12.97
2018-06-28T06:07:24.139Z,12.83
2018-06-28T06:09:54.004Z,19.60
2018-06-28T06:12:23.354Z,12.10
2018-06-28T06:14:51.833Z,13.53
2018-06-28T06:17:21.111Z,13.13
2018-06-28T06:19:50.450Z,13.27
2018-06-28T06:22:18.898Z,12.10
2018-06-28T06:24:47.669Z,11.30
2018-06-28T06:27:16.707Z,12.00
2018-06-28T06:29:45.245Z,12.30
2018-06-28T06:32:14.154Z,13.30
2018-06-28T06:34:42.971Z,20.00
2018-06-28T06:37:11.836Z,12.67
2018-06-28T06:39:40.633Z,17.83
2018-06-28T06:42:09.542Z,12.43
2018-06-28T06:44:38.412Z,13.93
2018-06-28T06:47:07.277Z,12.47
2018-06-28T06:49:37.029Z,19.07
2018-06-28T06:52:05.584Z,12.93
2018-06-28T06:54:34.377Z,13.20
2018-06-28T06:57:03.335Z,13.47
2018-06-28T06:59:32.024Z,22.23
2018-06-28T07:02:01.180Z,13.23
2018-06-28T07:04:29.749Z,13.53
2018-06-28T07:06:58.303Z,14.33
2018-06-28T07:09:26.968Z,14.40
2018-06-28T07:11:55.585Z,14.37
2018-06-28T07:14:25.626Z,15.83
2018-06-28T07:16:54.093Z,24.43
2018-06-28T07:19:23.460Z,14.67
2018-06-28T07:21:53.672Z,16.90
2018-06-28T07:24:22.609Z,15.27
2018-06-28T07:26:51.633Z,14.50
2018-06-28T07:29:20.619Z,15.57
2018-06-28T07:31:49.549Z,18.90
2018-06-28T07:34:18.373Z,15.90
2018-06-28T07:36:47.117Z,14.43
2018-06-28T07:39:16.682Z,13.30
2018-06-28T07:41:45.280Z,18.20
2018-06-28T07:44:14.788Z,13.90
2018-06-28T07:46:43.629Z,19.57
2018-06-28T07:49:12.251Z,14.73
2018-06-28T07:51:42.215Z,13.27
2018-06-28T07:54:12.169Z,13.83
2018-06-28T07:56:43.217Z,20.60
2018-06-28T07:59:11.762Z,13.70
2018-06-28T08:01:41.608Z,14.87
2018-06-28T08:04:12.938Z,13.93
2018-06-28T08:06:41.824Z,20.90
2018-06-28T08:09:10.702Z,17.23
2018-06-28T08:11:39.891Z,21.00
2018-06-28T08:14:08.483Z,14.90
2018-06-28T08:16:38.291Z,15.80
2018-06-28T08:19:07.052Z,14.90
2018-06-28T08:21:36.212Z,14.63
2018-06-28T08:24:05.071Z,20.37
2018-06-28T08:26:33.563Z,14.10
2018-06-28T08:29:02.450Z,14.07
2018-06-28T08:31:30.939Z,13.73
2018-06-28T08:34:00.167Z,13.90
2018-06-28T08:36:28.715Z,13.80
2018-06-28T08:38:58.020Z,14.40
2018-06-28T08:41:27.129Z,16.57
2018-06-28T08:43:55.643Z,14.93
2018-06-28T08:46:24.889Z,20.67
2018-06-28T08:48:53.729Z,16.13
2018-06-28T08:51:22.679Z,15.20
2018-06-28T08:53:52.136Z,15.60
2018-06-28T08:56:20.770Z,15.03
2018-06-28T08:58:49.230Z,19.87
2018-06-28T09:01:18.057Z,15.10
2018-06-28T09:03:46.791Z,16.17
2018-06-28T09:06:15.508Z,16.97
2018-06-28T09:08:44.770Z,16.23
2018-06-28T09:11:14.019Z,16.27
2018-06-28T09:13:42.983Z,15.30
2018-06-28T09:16:11.578Z,15.37
2018-06-28T09:18:40.192Z,14.90
2018-06-28T09:21:08.639Z,14.53
2018-06-28T09:23:38.138Z,14.77
2018-06-28T09:26:07.079Z,14.40
2018-06-28T09:28:35.520Z,14.40
2018-06-28T09:31:04.137Z,14.10
2018-06-28T09:33:32.736Z,14.17
2018-06-28T09:36:01.250Z,15.40
2018-06-28T09:38:29.785Z,14.80
2018-06-28T09:40:58.274Z,19.67
2018-06-28T09:43:27.012Z,15.93
2018-06-28T09:45:57.996Z,15.07
2018-06-28T09:48:26.815Z,16.00
2018-06-28T09:50:55.224Z,15.17
2018-06-28T09:53:24.016Z,16.50
2018-06-28T09:55:54.241Z,18.03
2018-06-28T09:58:22.672Z,16.67
2018-06-28T10:00:51.457Z,17.83
2018-06-28T10:03:20.089Z,18.50
2018-06-28T10:05:48.713Z,18.73
2018-06-28T10:08:19.187Z,17.67
2018-06-28T10:10:47.896Z,17.90
2018-06-28T10:13:17.468Z,17.17
2018-06-28T10:15:47.016Z,17.97
2018-06-28T10:18:16.102Z,17.60
2018-06-28T10:20:44.610Z,17.87
2018-06-28T10:23:13.692Z,17.33
2018-06-28T10:25:42.704Z,16.63
2018-06-28T10:28:11.124Z,15.73
2018-06-28T10:30:40.282Z,17.90
2018-06-28T10:33:09.079Z,17.90
2018-06-28T10:35:37.890Z,17.00
2018-06-28T10:38:06.448Z,17.37
2018-06-28T10:40:35.121Z,17.70
2018-06-28T10:43:04.107Z,16.53
2018-06-28T10:45:32.768Z,18.30
2018-06-28T10:48:01.620Z,17.77
2018-06-28T10:50:30.274Z,23.77
2018-06-28T10:52:59.058Z,18.00
2018-06-28T10:55:28.462Z,17.30
2018-06-28T10:57:57.446Z,17.50
2018-06-28T11:00:26.415Z,19.17
2018-06-28T11:02:55.059Z,16.80
2018-06-28T11:05:23.561Z,18.27
2018-06-28T11:07:52.680Z,17.90
2018-06-28T11:10:20.966Z,20.60
2018-06-28T11:12:50.071Z,20.93
2018-06-28T11:15:19.118Z,20.40
2018-06-28T11:17:50.799Z,19.97
2018-06-28T11:20:19.568Z,20.43
2018-06-28T11:22:48.011Z,22.13
2018-06-28T11:25:16.906Z,21.87
2018-06-28T11:27:45.766Z,30.77
2018-06-28T11:30:14.713Z,21.60
2018-06-28T11:32:43.672Z,22.27
2018-06-28T11:35:12.400Z,21.53
2018-06-28T11:37:40.689Z,21.53
2018-06-28T11:40:09.625Z,21.83
2018-06-28T11:42:38.450Z,22.13
2018-06-28T11:45:07.559Z,22.30
2018-06-28T11:47:36.179Z,20.40
2018-06-28T11:50:04.633Z,22.47
2018-06-28T11:52:34.184Z,32.50
2018-06-28T11:55:02.644Z,23.00
2018-06-28T11:57:31.737Z,23.23
2018-06-28T12:00:00.527Z,24.00
2018-06-28T12:02:29.491Z,30.40
2018-06-28T12:04:58.105Z,25.17
2018-06-28T12:07:26.603Z,21.83
2018-06-28T12:09:55.027Z,24.10
2018-06-28T12:12:24.013Z,23.60
2018-06-28T12:14:52.889Z,22.60
2018-06-28T12:17:22.321Z,24.67
2018-06-28T12:19:50.893Z,22.80
2018-06-28T12:22:19.572Z,22.47
2018-06-28T12:24:48.078Z,22.70
2018-06-28T12:27:17.830Z,25.87
2018-06-28T12:29:46.271Z,24.90
2018-06-28T12:32:15.344Z,27.20
2018-06-28T12:34:44.081Z,26.93
2018-06-28T12:37:12.912Z,28.10
2018-06-28T12:39:42.420Z,27.53
2018-06-28T12:42:11.017Z,37.97
2018-06-28T12:44:40.452Z,27.53
2018-06-28T12:47:50.154Z,27.67
2018-06-28T12:50:18.632Z,28.63
2018-06-28T12:53:19.391Z,27.93
2018-06-28T12:56:21.657Z,40.23
2018-06-28T12:58:54.900Z,27.77
2018-06-28T13:01:24.711Z,29.83
2018-06-28T13:03:53.452Z,30.33
2018-06-28T13:06:22.509Z,29.63
2018-06-28T13:08:53.839Z,29.10
2018-06-28T13:11:23.379Z,30.03
2018-06-28T13:13:52.617Z,39.87
2018-06-28T13:16:22.171Z,29.77
2018-06-28T13:18:51.815Z,28.53
2018-06-28T13:21:20.716Z,28.07
2018-06-28T13:23:49.905Z,27.03
2018-06-28T13:26:19.793Z,27.80
2018-06-28T13:28:48.409Z,38.30
2018-06-28T13:31:17.579Z,28.50
2018-06-28T13:33:46.561Z,24.77
2018-06-28T13:36:15.328Z,31.43
2018-06-28T13:38:43.950Z,22.70
2018-06-28T13:41:13.934Z,22.73
2018-06-28T13:43:42.895Z,22.00
2018-06-28T13:46:12.260Z,21.13
2018-06-28T13:48:40.754Z,22.50
2018-06-28T13:51:09.516Z,22.97
2018-06-28T13:53:38.171Z,24.50
2018-06-28T13:56:06.646Z,24.57
2018-06-28T13:58:35.630Z,23.73
2018-06-28T14:01:04.195Z,23.20
2018-06-28T14:03:32.659Z,28.07
2018-06-28T14:06:01.197Z,21.27
2018-06-28T14:08:31.091Z,20.70
2018-06-28T14:10:59.571Z,20.17
2018-06-28T14:13:28.003Z,19.57
2018-06-28T14:15:56.635Z,20.43
2018-06-28T14:18:25.276Z,20.10
2018-06-28T14:20:54.144Z,18.40
2018-06-28T14:23:22.636Z,20.60
2018-06-28T14:25:51.383Z,19.97
2018-06-28T14:28:20.013Z,20.37
2018-06-28T14:30:49.152Z,27.47
2018-06-28T14:33:17.623Z,20.80
2018-06-28T14:35:47.603Z,20.63
2018-06-28T14:38:16.434Z,20.67
2018-06-28T14:40:45.072Z,21.97
2018-06-28T14:43:13.559Z,21.80
2018-06-28T14:45:42.085Z,22.97
2018-06-28T14:48:10.641Z,28.70
2018-06-28T14:50:39.519Z,19.73
2018-06-28T14:53:08.033Z,27.23
2018-06-28T14:55:37.021Z,18.17
2018-06-28T14:58:05.703Z,19.57
2018-06-28T15:00:34.689Z,20.70
2018-06-28T15:03:04.332Z,21.37
2018-06-28T15:05:33.578Z,21.07
2018-06-28T15:08:03.400Z,20.70
2018-06-28T15:10:32.549Z,21.40
2018-06-28T15:13:02.163Z,18.30
2018-06-28T15:15:31.244Z,16.40
2018-06-28T15:18:00.994Z,16.60
2018-06-28T15:20:29.548Z,15.50
2018-06-28T15:22:59.445Z,15.30
2018-06-28T15:25:28.795Z,14.23
2018-06-28T15:27:58.239Z,16.10
2018-06-28T15:30:27.662Z,15.73
2018-06-28T15:32:57.357Z,15.23
2018-06-28T15:35:26.144Z,14.90
2018-06-28T15:37:56.077Z,14.87
2018-06-28T15:40:25.426Z,14.40
2018-06-28T15:42:53.691Z,20.20
2018-06-28T15:45:22.841Z,14.30
2018-06-28T15:47:52.739Z,15.80
2018-06-28T15:50:22.566Z,20.87
2018-06-28T15:52:52.334Z,14.77
2018-06-28T15:55:21.964Z,19.83
2018-06-28T15:57:51.709Z,13.93
2018-06-28T16:00:21.061Z,14.53
2018-06-28T16:02:49.745Z,19.67
2018-06-28T16:05:19.769Z,15.53
2018-06-28T16:07:49.213Z,14.43
2018-06-28T16:10:18.794Z,22.37
2018-06-28T16:12:48.502Z,15.50
2018-06-28T16:15:18.070Z,22.53
2018-06-28T16:17:47.109Z,15.37
2018-06-28T16:20:15.810Z,16.47
2018-06-28T16:22:44.657Z,14.67
2018-06-28T16:25:13.563Z,17.47
2018-06-28T16:27:42.095Z,14.47
2018-06-28T16:30:12.535Z,16.50
2018-06-28T16:32:41.460Z,18.90
2018-06-28T16:35:10.240Z,15.27
2018-06-28T16:37:38.893Z,16.80
2018-06-28T16:40:08.089Z,16.47
2018-06-28T16:42:36.482Z,22.87
2018-06-28T16:45:05.478Z,15.57
2018-06-28T16:47:34.599Z,15.20
2018-06-28T16:50:03.572Z,16.60
2018-06-28T16:52:32.136Z,16.90
2018-06-28T16:55:00.580Z,16.00
2018-06-28T16:57:29.540Z,16.70
2018-06-28T16:59:58.816Z,19.57
2018-06-28T17:02:27.743Z,22.27
2018-06-28T17:04:56.290Z,16.17
2018-06-28T17:07:26.977Z,17.47
2018-06-28T17:09:55.403Z,16.77
2018-06-28T17:12:23.876Z,17.13
2018-06-28T17:14:53.332Z,17.03
2018-06-28T17:17:22.208Z,18.00
2018-06-28T17:19:52.682Z,17.30
2018-06-28T17:22:21.226Z,15.83
2018-06-28T17:24:50.221Z,15.13
2018-06-28T17:27:19.449Z,16.40
2018-06-28T17:29:48.979Z,21.83
2018-06-28T17:32:18.975Z,16.40
2018-06-28T17:34:48.392Z,15.17
2018-06-28T17:37:17.588Z,15.07
2018-06-28T17:39:46.577Z,15.17
2018-06-28T17:42:15.741Z,16.37
2018-06-28T17:44:45.347Z,17.43
2018-06-28T17:47:14.942Z,20.33
2018-06-28T17:49:43.776Z,15.17
2018-06-28T17:52:12.365Z,14.10
2018-06-28T17:54:41.026Z,14.93
2018-06-28T17:57:11.157Z,25.53
2018-06-28T17:59:39.893Z,13.80
2018-06-28T18:02:10.568Z,14.27
2018-06-28T18:04:39.639Z,14.23
2018-06-28T18:07:09.429Z,14.80
2018-06-28T18:09:38.361Z,15.53
2018-06-28T18:12:08.509Z,15.23
2018-06-28T18:14:37.269Z,15.67
2018-06-28T18:17:06.370Z,17.93
2018-06-28T18:19:36.985Z,15.53
2018-06-28T18:22:07.074Z,15.83
2018-06-28T18:24:35.648Z,15.83
2018-06-28T18:27:04.161Z,16.17
2018-06-28T18:29:32.756Z,21.43
2018-06-28T18:32:01.193Z,15.43
2018-06-28T18:34:29.701Z,14.93
2018-06-28T18:36:58.303Z,15.37
2018-06-28T18:39:26.822Z,14.97
2018-06-28T18:41:55.697Z,16.07
2018-06-28T18:44:24.105Z,16.53
2018-06-28T18:46:54.296Z,16.00
2018-06-28T18:49:23.100Z,15.20
2018-06-28T18:51:51.730Z,15.50
2018-06-28T18:54:20.302Z,16.47
2018-06-28T18:56:49.067Z,23.95
2018-06-28T18:59:21.676Z,16.53
2018-06-28T19:01:50.997Z,15.80
2018-06-28T19:04:20.983Z,15.70
2018-06-28T19:06:49.800Z,17.97
2018-06-28T19:09:18.462Z,17.40
2018-06-28T19:11:47.637Z,18.33
2018-06-28T19:14:21.455Z,17.20
2018-06-28T19:16:55.687Z,16.33
2018-06-28T19:19:24.183Z,16.00
2018-06-28T19:21:59.124Z,16.80
2018-06-28T19:24:27.599Z,16.50
2018-06-28T19:26:56.517Z,16.83
2018-06-28T19:29:31.002Z,15.87
2018-06-28T19:32:05.396Z,21.73
2018-06-28T19:34:34.525Z,17.33
2018-06-28T19:37:03.850Z,16.87
2018-06-28T19:39:37.721Z,17.83
2018-06-28T19:43:14.695Z,18.50
2018-06-28T19:45:43.380Z,20.53
2018-06-28T19:48:12.325Z,19.53
2018-06-28T19:50:46.159Z,25.00
2018-06-28T19:53:16.381Z,26.57
2018-06-28T19:55:45.276Z,21.20
2018-06-28T19:58:15.094Z,20.90
2018-06-28T20:00:48.965Z,20.23
2018-06-28T20:03:23.121Z,20.57
2018-06-28T20:05:52.000Z,20.47
2018-06-28T20:08:20.848Z,23.20
2018-06-28T20:10:49.407Z,22.40
2018-06-28T20:13:23.636Z,22.40
2018-06-28T20:15:58.022Z,23.27
2018-06-28T20:18:32.342Z,23.47
2018-06-28T20:21:02.307Z,23.03
2018-06-28T20:23:31.041Z,24.97
2018-06-28T20:26:04.143Z,25.27
2018-06-28T20:28:38.139Z,25.50
2018-06-28T20:31:12.149Z,26.50
2018-06-28T20:33:46.373Z,27.00
2018-06-28T20:36:15.227Z,27.33
2018-06-28T20:38:44.322Z,27.90
2018-06-28T20:41:13.231Z,37.53
2018-06-28T20:43:41.883Z,25.70
2018-06-28T20:46:10.366Z,26.13
2018-06-28T20:48:38.963Z,26.80
2018-06-28T20:51:08.133Z,27.50
2018-06-28T20:53:36.459Z,26.90
2018-06-28T20:56:05.310Z,26.37
2018-06-28T20:58:35.685Z,43.40
2018-06-28T21:01:04.397Z,28.57
2018-06-28T21:03:33.029Z,29.13
2018-06-28T21:06:01.458Z,26.90
2018-06-28T21:08:30.117Z,31.27
2018-06-28T21:10:59.143Z,33.33
2018-06-28T21:13:27.881Z,28.60
2018-06-28T21:15:56.321Z,29.23
2018-06-28T21:18:24.933Z,28.17
2018-06-28T21:20:53.534Z,28.80
2018-06-28T21:23:22.755Z,38.63
2018-06-28T21:25:52.583Z,31.30
2018-06-28T21:28:21.020Z,30.70
2018-06-28T21:30:52.108Z,32.73
2018-06-28T21:33:23.539Z,26.80
2018-06-28T21:35:52.078Z,49.53
2018-06-28T21:38:20.737Z,31.57
2018-06-28T21:40:49.482Z,30.37
2018-06-28T21:43:17.963Z,29.00
2018-06-28T21:45:46.395Z,29.27
2018-06-28T21:48:15.329Z,31.97
2018-06-28T21:50:43.780Z,30.67
2018-06-28T21:53:14.638Z,33.23
